createdAt,value
2023-02-18T00:01:08.616Z,77.20
2023-02-18T00:04:11.934Z,77.24
2023-02-18T00:07:15.210Z,77.23
2023-02-18T00:10:18.702Z,77.23
2023-02-18T00:13:21.872Z,77.26
2023-02-18T00:16:26.247Z,77.21
2023-02-18T00:19:29.487Z,77.21
2023-02-18T00:22:32.821Z,77.22
2023-02-18T00:25:36.168Z,77.07
2023-02-18T00:28:39.397Z,77.06
2023-02-18T00:31:42.933Z,76.98
2023-02-18T00:34:46.195Z,76.96
2023-02-18T00:37:52.080Z,76.80
2023-02-18T00:40:55.347Z,76.57
2023-02-18T00:43:58.547Z,76.62
2023-02-18T00:47:01.803Z,76.43
2023-02-18T00:50:05.562Z,76.40
2023-02-18T00:53:08.994Z,76.21
2023-02-18T00:56:12.471Z,76.00
2023-02-18T00:59:15.758Z,75.77
2023-02-18T01:02:19.684Z,75.69
2023-02-18T01:05:22.923Z,75.63
2023-02-18T01:08:26.203Z,75.51
2023-02-18T01:11:29.497Z,75.54
2023-02-18T01:14:32.739Z,75.40
2023-02-18T01:17:36.083Z,75.33
2023-02-18T01:20:43.510Z,75.06
2023-02-18T01:23:46.837Z,75.07
2023-02-18T01:26:52.571Z,74.84
2023-02-18T01:29:56.008Z,74.55
2023-02-18T01:33:00.430Z,74.16
2023-02-18T01:36:05.028Z,73.98
2023-02-18T01:39:08.342Z,73.78
2023-02-18T01:42:23.144Z,73.56
2023-02-18T01:45:47.703Z,73.39
2023-02-18T01:49:01.493Z,73.36
2023-02-18T01:52:15.827Z,73.10
2023-02-18T01:55:19.087Z,72.56
2023-02-18T01:58:22.424Z,72.02
2023-02-18T02:01:26.896Z,71.56
2023-02-18T02:04:30.648Z,71.32
2023-02-18T02:07:34.017Z,71.01
2023-02-18T02:11:12.811Z,70.62
2023-02-18T02:14:44.077Z,70.23
2023-02-18T02:18:06.076Z,69.72
2023-02-18T02:21:35.359Z,69.23
2023-02-18T02:25:08.935Z,68.81
2023-02-18T02:28:24.412Z,68.36
2023-02-18T02:31:51.939Z,67.90
2023-02-18T02:35:10.977Z,67.48
2023-02-18T02:38:32.974Z,67.12
2023-02-18T02:41:55.186Z,67.05
2023-02-18T02:45:14.889Z,66.92
2023-02-18T02:48:23.682Z,66.76
2023-02-18T02:51:36.162Z,66.69
2023-02-18T02:54:39.982Z,66.57
2023-02-18T02:57:50.908Z,66.50
2023-02-18T03:01:06.250Z,66.44
2023-02-18T03:04:45.363Z,66.27
2023-02-18T03:08:12.044Z,66.21
2023-02-18T03:11:17.839Z,66.25
2023-02-18T03:14:33.191Z,66.28
2023-02-18T03:17:56.168Z,66.09
2023-02-18T03:21:08.773Z,65.66
2023-02-18T03:24:17.928Z,64.97
2023-02-18T03:27:29.117Z,64.64
2023-02-18T03:30:52.077Z,64.38
2023-02-18T03:34:11.336Z,64.04
2023-02-18T03:37:16.218Z,63.84
2023-02-18T03:40:19.918Z,63.81
2023-02-18T03:43:23.979Z,63.72
2023-02-18T03:46:28.945Z,63.49
2023-02-18T03:49:32.276Z,63.47
2023-02-18T03:52:36.817Z,63.43
2023-02-18T03:55:40.183Z,63.29
2023-02-18T03:58:43.493Z,63.33
2023-02-18T04:01:46.817Z,63.23
2023-02-18T04:04:50.019Z,63.05
2023-02-18T04:07:53.448Z,62.98
2023-02-18T04:10:56.730Z,62.78
2023-02-18T04:13:59.963Z,62.64
2023-02-18T04:17:03.395Z,62.45
2023-02-18T04:20:07.584Z,62.36
2023-02-18T04:23:10.818Z,62.31
2023-02-18T04:26:14.187Z,61.96
2023-02-18T04:29:17.341Z,61.94
2023-02-18T04:32:20.593Z,61.82
2023-02-18T04:35:23.916Z,61.90
2023-02-18T04:38:27.161Z,61.32
2023-02-18T04:41:30.714Z,61.13
2023-02-18T04:44:33.869Z,60.89
2023-02-18T04:47:37.101Z,60.68
2023-02-18T04:50:40.398Z,60.64
2023-02-18T04:53:43.667Z,60.43
2023-02-18T04:56:46.872Z,60.08
2023-02-18T04:59:50.062Z,59.75
2023-02-18T05:02:53.232Z,59.63
2023-02-18T05:05:56.772Z,59.38
2023-02-18T05:09:00.024Z,59.35
2023-02-18T05:12:03.451Z,59.07
2023-02-18T05:15:07.239Z,58.98
2023-02-18T05:18:10.470Z,58.93
2023-02-18T05:21:13.678Z,58.54
2023-02-18T05:24:17.012Z,58.54
2023-02-18T05:27:20.177Z,58.30
2023-02-18T05:30:23.472Z,58.25
2023-02-18T05:33:27.257Z,58.08
2023-02-18T05:36:30.464Z,57.70
2023-02-18T05:39:33.668Z,57.54
2023-02-18T05:42:36.860Z,57.46
2023-02-18T05:45:40.112Z,57.29
2023-02-18T05:48:43.337Z,57.14
2023-02-18T05:51:46.579Z,57.03
2023-02-18T05:54:49.879Z,57.13
2023-02-18T05:57:53.069Z,56.80
2023-02-18T06:00:56.306Z,56.78
2023-02-18T06:03:59.487Z,56.51
2023-02-18T06:07:02.787Z,56.28
2023-02-18T06:10:07.064Z,56.17
2023-02-18T06:13:10.246Z,56.12
2023-02-18T06:16:13.487Z,55.76
2023-02-18T06:19:16.814Z,55.56
2023-02-18T06:22:20.097Z,55.44
2023-02-18T06:25:23.522Z,55.19
2023-02-18T06:28:26.743Z,55.04
2023-02-18T06:31:30.538Z,55.09
2023-02-18T06:34:35.055Z,54.85
2023-02-18T06:37:38.299Z,54.61
2023-02-18T06:40:41.647Z,54.42
2023-02-18T06:43:44.907Z,54.49
2023-02-18T06:46:48.633Z,54.42
2023-02-18T06:52:47.944Z,54.25
2023-02-18T06:55:51.147Z,54.08
2023-02-18T06:58:54.326Z,53.81
2023-02-18T07:01:57.513Z,53.77
2023-02-18T07:14:06.024Z,53.35
2023-02-18T07:17:13.162Z,53.48
2023-02-18T07:20:28.980Z,53.36
2023-02-18T07:23:33.248Z,53.05
2023-02-18T07:26:36.678Z,52.97
2023-02-18T07:29:40.174Z,52.93
2023-02-18T07:32:43.785Z,52.73
2023-02-18T07:35:46.954Z,52.58
2023-02-18T07:38:50.539Z,52.64
2023-02-18T07:42:21.728Z,52.52
2023-02-18T07:45:27.205Z,52.51
2023-02-18T07:48:30.454Z,52.35
2023-02-18T07:51:33.925Z,52.20
2023-02-18T07:54:53.512Z,52.39
2023-02-18T07:58:02.288Z,52.18
2023-02-18T08:01:12.024Z,52.12
2023-02-18T08:04:16.023Z,52.53
2023-02-18T08:07:21.813Z,52.63
2023-02-18T08:10:25.071Z,52.38
2023-02-18T08:13:29.588Z,52.04
2023-02-18T08:16:32.921Z,51.90
2023-02-18T08:19:36.213Z,52.07
2023-02-18T08:22:39.437Z,51.92
2023-02-18T08:25:50.854Z,51.96
2023-02-18T08:28:54.108Z,51.88
2023-02-18T08:31:58.341Z,51.86
2023-02-18T08:35:01.722Z,51.50
2023-02-18T08:38:05.268Z,51.69
2023-02-18T08:41:09.470Z,51.75
2023-02-18T08:44:13.447Z,51.61
2023-02-18T08:48:19.549Z,51.42
2023-02-18T08:50:41.414Z,51.47
2023-02-18T08:53:47.082Z,51.59
2023-02-18T08:56:50.524Z,51.56
2023-02-18T08:59:53.875Z,51.58
2023-02-18T09:02:57.109Z,51.78
2023-02-18T09:06:00.870Z,51.55
2023-02-18T09:09:04.576Z,51.71
2023-02-18T09:12:08.713Z,51.64
2023-02-18T09:15:12.203Z,51.72
2023-02-18T09:18:15.573Z,51.80
2023-02-18T09:21:20.862Z,51.89
2023-02-18T09:24:24.944Z,51.75
2023-02-18T09:35:02.154Z,52.01
2023-02-18T09:38:04.019Z,52.17
2023-02-18T09:41:14.578Z,52.14
2023-02-18T09:44:51.916Z,52.12
2023-02-18T09:47:54.468Z,52.29
2023-02-18T09:50:57.009Z,52.16
2023-02-18T09:53:58.947Z,52.30
2023-02-18T09:57:24.668Z,52.19
2023-02-18T10:00:37.909Z,52.18
2023-02-18T10:03:40.234Z,52.04
2023-02-18T10:06:44.494Z,52.32
2023-02-18T10:09:48.186Z,52.19
2023-02-18T10:12:55.024Z,52.38
2023-02-18T10:15:59.663Z,52.52
2023-02-18T10:19:20.383Z,52.85
2023-02-18T10:22:24.618Z,53.09
2023-02-18T10:25:27.807Z,53.48
2023-02-18T10:28:31.209Z,53.78
2023-02-18T10:50:10.944Z,55.24
2023-02-18T10:53:37.840Z,55.43
2023-02-18T10:56:52.152Z,55.65
2023-02-18T11:00:01.387Z,55.71
2023-02-18T11:03:16.204Z,55.77
2023-02-18T11:06:40.806Z,55.84
2023-02-18T11:09:51.082Z,56.02
2023-02-18T11:13:16.985Z,56.28
2023-02-18T11:16:40.845Z,56.18
2023-02-18T11:19:44.147Z,56.17
2023-02-18T11:22:48.204Z,56.18
2023-02-18T11:26:07.937Z,56.26
2023-02-18T11:29:13.953Z,56.27
2023-02-18T11:32:18.592Z,56.41
2023-02-18T11:35:30.482Z,56.51
2023-02-18T11:38:46.319Z,56.71
2023-02-18T11:42:02.198Z,56.60
2023-02-18T11:45:05.947Z,56.82
2023-02-18T11:48:23.687Z,57.06
2023-02-18T11:51:33.813Z,57.35
2023-02-18T11:54:37.100Z,57.51
2023-02-18T11:57:45.424Z,57.69
2023-02-18T12:00:51.655Z,57.94
2023-02-18T12:04:09.150Z,58.14
2023-02-18T12:07:15.325Z,58.39
2023-02-18T12:10:28.303Z,58.59
2023-02-18T12:13:48.192Z,58.96
2023-02-18T12:17:09.826Z,59.23
2023-02-18T12:20:34.579Z,59.58
2023-02-18T12:24:06.775Z,59.87
2023-02-18T12:27:37.104Z,60.21
2023-02-18T12:30:43.246Z,60.68
2023-02-18T12:34:20.589Z,60.81
2023-02-18T12:37:51.662Z,61.09
2023-02-18T12:40:57.880Z,61.44
2023-02-18T12:44:06.883Z,61.55
2023-02-18T12:47:23.883Z,61.93
2023-02-18T12:50:40.216Z,62.15
2023-02-18T12:54:06.894Z,62.42
2023-02-18T12:57:24.236Z,62.52
2023-02-18T13:00:40.561Z,62.66
2023-02-18T13:04:21.100Z,62.95
2023-02-18T13:07:47.286Z,63.22
2023-02-18T13:11:27.786Z,63.40
2023-02-18T13:14:37.024Z,63.66
2023-02-18T13:17:43.158Z,63.90
2023-02-18T13:20:58.548Z,64.01
2023-02-18T13:24:06.180Z,64.19
2023-02-18T13:27:39.246Z,64.35
2023-02-18T13:30:49.446Z,64.44
2023-02-18T13:34:29.377Z,64.61
2023-02-18T13:37:35.699Z,65.04
2023-02-18T13:40:40.267Z,65.51
2023-02-18T13:43:47.974Z,65.43
2023-02-18T13:46:57.037Z,65.91
2023-02-18T13:50:25.938Z,66.28
2023-02-18T13:53:33.110Z,65.92
2023-02-18T13:56:42.811Z,65.84
2023-02-18T13:59:50.536Z,65.89
2023-02-18T14:02:59.948Z,65.91
2023-02-18T14:06:14.534Z,65.96
2023-02-18T14:09:17.729Z,66.08
2023-02-18T14:12:40.580Z,66.21
2023-02-18T14:15:56.670Z,66.39
2023-02-18T14:19:02.005Z,66.63
2023-02-18T14:22:31.135Z,66.66
2023-02-18T14:25:41.096Z,66.73
2023-02-18T14:28:47.280Z,66.92
2023-02-18T14:31:54.422Z,66.80
2023-02-18T14:35:36.246Z,67.05
2023-02-18T14:39:10.015Z,67.09
2023-02-18T14:42:46.677Z,67.19
2023-02-18T14:46:15.349Z,67.33
2023-02-18T14:49:32.975Z,67.50
2023-02-18T14:53:00.050Z,67.55
2023-02-18T14:56:06.003Z,67.70
2023-02-18T14:59:12.035Z,67.72
2023-02-18T15:02:24.080Z,67.87
2023-02-18T15:05:32.198Z,68.01
2023-02-18T15:13:28.558Z,68.32
2023-02-18T15:16:34.166Z,68.65
2023-02-18T15:19:49.460Z,68.63
2023-02-18T15:22:52.712Z,68.89
2023-02-18T15:25:56.271Z,69.15
2023-02-18T15:29:06.053Z,69.28
2023-02-18T15:32:25.278Z,69.43
2023-02-18T15:35:39.096Z,69.59
2023-02-18T15:38:43.940Z,69.71
2023-02-18T15:41:52.685Z,69.89
2023-02-18T15:45:04.513Z,69.95
2023-02-18T15:48:20.428Z,70.27
2023-02-18T15:51:28.766Z,70.36
2023-02-18T15:54:32.700Z,70.66
2023-02-18T15:57:37.613Z,70.78
2023-02-18T16:00:48.329Z,71.11
2023-02-18T16:03:52.225Z,71.27
2023-02-18T16:06:56.534Z,71.49
2023-02-18T16:10:25.968Z,71.72
2023-02-18T16:13:50.023Z,71.92
2023-02-18T16:17:12.725Z,72.17
2023-02-18T16:20:29.640Z,72.27
2023-02-18T16:23:46.088Z,72.46
2023-02-18T16:30:49.720Z,72.83
2023-02-18T16:34:01.322Z,72.97
2023-02-18T16:37:43.525Z,73.06
2023-02-18T16:44:57.267Z,73.43
2023-02-18T16:48:21.558Z,73.44
2023-02-18T16:51:32.710Z,73.48
2023-02-18T16:55:34.384Z,73.56
2023-02-18T17:02:04.080Z,73.88
2023-02-18T17:05:20.674Z,73.98
2023-02-18T17:08:30.139Z,74.11
2023-02-18T17:11:49.939Z,74.14
2023-02-18T17:18:11.033Z,74.35
2023-02-18T17:21:48.990Z,74.38
2023-02-18T17:24:52.666Z,74.38
2023-02-18T17:27:59.731Z,74.54
2023-02-18T17:31:04.055Z,74.50
2023-02-18T17:34:12.539Z,74.48
2023-02-18T17:37:15.869Z,74.56
2023-02-18T17:40:32.300Z,74.53
2023-02-18T17:43:35.743Z,74.62
2023-02-18T17:46:39.121Z,74.60
2023-02-18T17:49:42.431Z,74.51
2023-02-18T17:52:45.749Z,74.56
2023-02-18T17:55:49.453Z,74.56
2023-02-18T17:58:52.701Z,74.55
2023-02-18T18:01:55.920Z,74.54
2023-02-18T18:04:59.298Z,74.63
2023-02-18T18:08:03.860Z,74.59
2023-02-18T18:11:13.222Z,74.59
2023-02-18T18:14:16.402Z,74.54
2023-02-18T18:17:19.593Z,74.55
2023-02-18T18:20:24.576Z,74.46
2023-02-18T18:23:29.395Z,74.48
2023-02-18T18:26:32.709Z,74.39
2023-02-18T18:29:35.934Z,74.41
2023-02-18T18:32:39.257Z,74.28
2023-02-18T18:35:43.951Z,74.24
2023-02-18T18:38:48.181Z,74.17
2023-02-18T18:41:52.006Z,74.12
2023-02-18T18:44:55.293Z,74.05
2023-02-18T18:47:58.894Z,74.05
2023-02-18T18:51:02.443Z,73.98
2023-02-18T18:54:05.901Z,73.86
2023-02-18T18:57:09.104Z,73.77
2023-02-18T19:00:13.190Z,73.86
2023-02-18T19:03:17.100Z,73.63
2023-02-18T19:06:21.164Z,73.77
2023-02-18T19:09:24.478Z,73.71
2023-02-18T19:12:27.676Z,73.65
2023-02-18T19:15:31.337Z,73.70
2023-02-18T19:18:35.385Z,73.65
2023-02-18T19:21:38.864Z,73.72
2023-02-18T19:24:42.941Z,73.75
2023-02-18T19:27:47.225Z,73.76
2023-02-18T19:30:50.553Z,73.73
2023-02-18T19:33:54.035Z,73.70
2023-02-18T19:36:57.330Z,73.62
2023-02-18T19:40:00.893Z,73.52
2023-02-18T19:43:04.758Z,73.56
2023-02-18T19:46:10.435Z,73.51
2023-02-18T19:49:13.648Z,73.56
2023-02-18T19:52:17.763Z,73.45
2023-02-18T19:55:22.103Z,73.39
2023-02-18T19:58:25.418Z,73.45
2023-02-18T20:01:28.755Z,73.47
2023-02-18T20:04:31.960Z,73.54
2023-02-18T20:07:39.137Z,73.45
2023-02-18T20:10:42.530Z,73.58
2023-02-18T20:13:47.837Z,73.73
2023-02-18T20:16:51.217Z,73.71
2023-02-18T20:19:54.661Z,73.64
2023-02-18T20:22:57.870Z,73.51
2023-02-18T20:26:04.153Z,73.37
2023-02-18T20:29:07.413Z,73.44
2023-02-18T20:32:10.843Z,73.56
2023-02-18T20:35:14.120Z,73.50
2023-02-18T20:38:18.787Z,73.43
2023-02-18T20:41:23.734Z,73.52
2023-02-18T20:44:28.467Z,73.57
2023-02-18T20:47:31.744Z,73.55
2023-02-18T20:50:35.175Z,73.67
2023-02-18T20:53:40.261Z,73.79
2023-02-18T20:56:44.198Z,73.87
2023-02-18T20:59:47.452Z,73.98
2023-02-18T21:02:51.872Z,74.03
2023-02-18T21:05:57.129Z,74.03
2023-02-18T21:09:00.436Z,74.27
2023-02-18T21:12:04.171Z,74.24
2023-02-18T21:15:07.952Z,74.31
2023-02-18T21:18:11.264Z,74.32
2023-02-18T21:21:15.287Z,74.35
2023-02-18T21:24:18.770Z,74.38
2023-02-18T21:27:28.030Z,74.49
2023-02-18T21:30:36.838Z,74.56
2023-02-18T21:33:41.525Z,74.42
2023-02-18T21:36:44.934Z,74.61
2023-02-18T21:39:48.265Z,74.37
2023-02-18T21:42:51.716Z,74.45
2023-02-18T21:45:55.031Z,74.52
2023-02-18T21:49:02.280Z,74.50
2023-02-18T21:52:10.388Z,74.52
2023-02-18T21:55:14.208Z,74.50
2023-02-18T21:58:21.698Z,74.36
2023-02-18T22:01:27.624Z,74.43
2023-02-18T22:04:33.266Z,74.33
2023-02-18T22:07:36.573Z,74.33
2023-02-18T22:10:39.876Z,74.28
2023-02-18T22:13:44.061Z,74.28
2023-02-18T22:16:47.816Z,74.46
2023-02-18T22:19:51.120Z,74.44
2023-02-18T22:22:54.484Z,74.45
2023-02-18T22:25:57.864Z,74.43
2023-02-18T22:29:01.493Z,74.40
2023-02-18T22:32:05.251Z,74.35
2023-02-18T22:35:08.631Z,74.18
2023-02-18T22:38:11.900Z,74.13
2023-02-18T22:41:26.070Z,74.17
2023-02-18T22:44:29.610Z,74.16
2023-02-18T22:47:36.699Z,74.07
2023-02-18T22:50:39.941Z,73.86
2023-02-18T22:53:44.047Z,73.91
2023-02-18T22:56:47.844Z,73.89
2023-02-18T22:59:51.450Z,73.72
2023-02-18T23:02:54.928Z,73.73
2023-02-18T23:06:03.202Z,73.65
2023-02-18T23:09:10.166Z,73.55
2023-02-18T23:12:15.815Z,73.64
2023-02-18T23:15:19.097Z,73.71
2023-02-18T23:18:22.444Z,73.75
2023-02-18T23:21:25.797Z,73.70
2023-02-18T23:24:31.375Z,73.66
2023-02-18T23:27:34.623Z,73.77
2023-02-18T23:30:41.795Z,73.90
2023-02-18T23:33:47.201Z,73.85
2023-02-18T23:36:50.694Z,73.76
2023-02-18T23:39:54.054Z,73.66
2023-02-18T23:42:57.404Z,73.72
2023-02-18T23:46:00.839Z,73.65
2023-02-18T23:49:05.141Z,73.57
2023-02-18T23:52:08.454Z,73.57
2023-02-18T23:55:11.784Z,73.59
2023-02-18T23:58:15.136Z,73.58
